Hlavní strana
METAR-TAF:

METAR-TAF

Letiště :

Valencia, Venezuela

zeměpisná šířka: 10-10N, zeměpisná délka: 067-56W, výška: 430 m

Aktuální stav počasí

Zpráva byla vytvořena před 51 minutami, v 01:02 UTC
Severní vítr 7 kt
Teplota 27°C
Vlhkost vzduchu 54%
Tlak 1012 hPa

METAR: SVVA 260102Z AUTO 35007KT NCD 27/17 Q1012

Čas: 21:53 (01:53 UTC)

Předpověď počasí

Zpráva byla vytvořena před 15 hodinami a 23 minutami, v 10:30 UTC
Předpověď platná od 25 v 12 UTC do 26 v 12 UTC
Východní vítr 2 kt
Viditelnost 10 km a více
Skoro jasno ve výšce 1600 ft
Dočasný
od 25 v 16 UTC do 25 v 20 UTC
Jižní vítr 3 kt
Viditelnost 10 km a více
Skoro jasno ve výšce 2000 ft
Dočasný
od 26 v 00 UTC do 26 v 04 UTC
Západojihozápadní vítr 4 kt
Viditelnost 10 km a více
Polojasno ve výšce 1600 ft

TAF: SVVA 251030Z 2512/2612 09002KT 9999 FEW016 TX33/2519Z TN23/2609Z TEMPO 2516/2520 18003KT 9999 FEW020 TEMPO 2600/2604 24004KT 9999 SCT016

Stav a předpovědi počasí z více než 4 000 letišť (zprávy METAR a TAF).

Červené a žluté tečky na mapě představují dostupné meteorologické stanice.

Když kurzor umístíte na tečku, zobrazí se název stanice.

Pak kliknutím zobrazíte stav a předpověď počasí.

Chcete-li změnit mapu, kliknutím na zelené tlačítko se znaménkem +mapu přiblížíte, kliknutím na zelené tlačítko se znaménkem – mapu oddálíte a kliknutím na zelené šipky přejdete na sousední mapy.


METAR-TAF: